sensor_id;sensor_type;location;lat;lon;timestamp;pressure;altitude;pressure_sealevel;temperature;humidity
48926;BME280;39838;59.938;30.642;2022-08-21T00:00:08;101339.91;;;16.89;55.03
48926;BME280;39838;59.938;30.642;2022-08-21T00:02:36;101347.75;;;16.90;54.91
48926;BME280;39838;59.938;30.642;2022-08-21T00:05:04;101366.88;;;17.02;55.26
48926;BME280;39838;59.938;30.642;2022-08-21T00:07:32;101365.13;;;17.01;55.16
48926;BME280;39838;59.938;30.642;2022-08-21T00:10:00;101357.28;;;16.98;54.92
48926;BME280;39838;59.938;30.642;2022-08-21T00:12:27;101357.34;;;16.91;55.73
48926;BME280;39838;59.938;30.642;2022-08-21T00:14:54;101361.78;;;16.88;55.66
48926;BME280;39838;59.938;30.642;2022-08-21T00:17:21;101361.81;;;16.85;55.65
48926;BME280;39838;59.938;30.642;2022-08-21T00:19:49;101358.38;;;16.80;55.73
48926;BME280;39838;59.938;30.642;2022-08-21T00:22:16;101361.00;;;16.78;55.95
48926;BME280;39838;59.938;30.642;2022-08-21T00:24:43;101362.78;;;16.78;55.94
48926;BME280;39838;59.938;30.642;2022-08-21T00:27:11;101349.72;;;16.72;56.21
48926;BME280;39838;59.938;30.642;2022-08-21T00:29:39;101353.25;;;16.66;56.35
48926;BME280;39838;59.938;30.642;2022-08-21T00:32:06;101355.94;;;16.61;56.65
48926;BME280;39838;59.938;30.642;2022-08-21T00:34:33;101354.22;;;16.60;56.67
48926;BME280;39838;59.938;30.642;2022-08-21T00:37:00;101359.44;;;16.62;56.64
48926;BME280;39838;59.938;30.642;2022-08-21T00:39:27;101348.03;;;16.64;56.83
48926;BME280;39838;59.938;30.642;2022-08-21T00:41:54;101348.91;;;16.67;56.82
48926;BME280;39838;59.938;30.642;2022-08-21T00:44:23;101353.22;;;16.72;56.83
48926;BME280;39838;59.938;30.642;2022-08-21T00:46:50;101350.56;;;16.75;56.82
48926;BME280;39838;59.938;30.642;2022-08-21T00:49:18;101347.06;;;16.76;57.05
48926;BME280;39838;59.938;30.642;2022-08-21T00:51:48;101338.34;;;16.71;56.74
48926;BME280;39838;59.938;30.642;2022-08-21T00:54:16;101348.81;;;16.76;56.74
48926;BME280;39838;59.938;30.642;2022-08-21T00:56:43;101344.47;;;16.72;56.98
48926;BME280;39838;59.938;30.642;2022-08-21T00:59:11;101343.63;;;16.68;57.09
48926;BME280;39838;59.938;30.642;2022-08-21T01:01:40;101347.13;;;16.65;57.31
48926;BME280;39838;59.938;30.642;2022-08-21T01:04:07;101349.81;;;16.61;57.52
48926;BME280;39838;59.938;30.642;2022-08-21T01:06:34;101336.78;;;16.55;57.50
48926;BME280;39838;59.938;30.642;2022-08-21T01:09:01;101346.41;;;16.54;57.78
48926;BME280;39838;59.938;30.642;2022-08-21T01:11:28;101342.91;;;16.52;57.76
48926;BME280;39838;59.938;30.642;2022-08-21T01:13:56;101343.03;;;16.43;57.91
48926;BME280;39838;59.938;30.642;2022-08-21T01:16:23;101344.88;;;16.35;58.35
48926;BME280;39838;59.938;30.642;2022-08-21T01:18:52;101345.78;;;16.29;58.55
48926;BME280;39838;59.938;30.642;2022-08-21T01:21:23;101338.91;;;16.21;58.75
48926;BME280;39838;59.938;30.642;2022-08-21T01:23:52;101338.00;;;16.19;58.84
48926;BME280;39838;59.938;30.642;2022-08-21T01:26:24;101340.66;;;16.17;59.25
48926;BME280;39838;59.938;30.642;2022-08-21T01:28:55;101338.94;;;16.15;59.15
48926;BME280;39838;59.938;30.642;2022-08-21T01:31:25;101334.59;;;16.14;59.09
48926;BME280;39838;59.938;30.642;2022-08-21T01:33:53;101331.97;;;16.12;59.33
48926;BME280;39838;59.938;30.642;2022-08-21T01:36:23;101328.53;;;16.07;59.53
48926;BME280;39838;59.938;30.642;2022-08-21T01:38:51;101324.19;;;16.03;59.87
48926;BME280;39838;59.938;30.642;2022-08-21T01:41:18;101305.13;;;15.89;59.76
48926;BME280;39838;59.938;30.642;2022-08-21T01:43:48;101330.38;;;15.99;59.83
48926;BME280;39838;59.938;30.642;2022-08-21T01:46:16;101323.38;;;15.98;60.00
48926;BME280;39838;59.938;30.642;2022-08-21T01:48:43;101318.19;;;15.93;60.03
48926;BME280;39838;59.938;30.642;2022-08-21T01:51:10;101318.19;;;15.90;60.34
48926;BME280;39838;59.938;30.642;2022-08-21T01:53:39;101319.97;;;15.90;60.59
48926;BME280;39838;59.938;30.642;2022-08-21T01:56:10;101316.50;;;15.88;60.64
48926;BME280;39838;59.938;30.642;2022-08-21T01:58:37;101318.25;;;15.86;60.66
48926;BME280;39838;59.938;30.642;2022-08-21T02:01:05;101320.88;;;15.84;60.75
48926;BME280;39838;59.938;30.642;2022-08-21T02:03:32;101310.44;;;15.81;61.00
48926;BME280;39838;59.938;30.642;2022-08-21T02:05:59;101297.47;;;15.64;61.00
48926;BME280;39838;59.938;30.642;2022-08-21T02:08:27;101313.09;;;15.76;61.40
48926;BME280;39838;59.938;30.642;2022-08-21T02:10:55;101312.22;;;15.76;61.16
48926;BME280;39838;59.938;30.642;2022-08-21T02:13:23;101315.72;;;15.75;61.24
48926;BME280;39838;59.938;30.642;2022-08-21T02:15:50;101315.75;;;15.72;61.51
48926;BME280;39838;59.938;30.642;2022-08-21T02:18:17;101314.00;;;15.69;61.84
48926;BME280;39838;59.938;30.642;2022-08-21T02:20:46;101313.16;;;15.67;62.05
48926;BME280;39838;59.938;30.642;2022-08-21T02:23:14;101314.91;;;15.67;62.26
48926;BME280;39838;59.938;30.642;2022-08-21T02:25:42;101314.91;;;15.68;61.98
48926;BME280;39838;59.938;30.642;2022-08-21T02:28:13;101318.41;;;15.64;62.24
48926;BME280;39838;59.938;30.642;2022-08-21T02:30:43;101319.31;;;15.62;62.32
48926;BME280;39838;59.938;30.642;2022-08-21T02:33:11;101321.06;;;15.58;62.46
48926;BME280;39838;59.938;30.642;2022-08-21T02:35:40;101316.69;;;15.57;62.48
48926;BME280;39838;59.938;30.642;2022-08-21T02:38:10;101312.34;;;15.54;63.02
48926;BME280;39838;59.938;30.642;2022-08-21T02:40:39;101309.75;;;15.50;63.39
48926;BME280;39838;59.938;30.642;2022-08-21T02:43:07;101305.41;;;15.49;63.19
48926;BME280;39838;59.938;30.642;2022-08-21T02:45:37;101287.19;;;15.35;63.21
48926;BME280;39838;59.938;30.642;2022-08-21T02:48:07;101302.78;;;15.52;63.56
48926;BME280;39838;59.938;30.642;2022-08-21T02:50:36;101311.44;;;15.60;63.29
48926;BME280;39838;59.938;30.642;2022-08-21T02:53:05;101309.69;;;15.64;63.52
48926;BME280;39838;59.938;30.642;2022-08-21T02:55:33;101308.75;;;15.71;62.89
48926;BME280;39838;59.938;30.642;2022-08-21T02:58:02;101299.16;;;15.71;62.83
48926;BME280;39838;59.938;30.642;2022-08-21T03:00:32;101314.78;;;15.82;63.04
48926;BME280;39838;59.938;30.642;2022-08-21T03:03:01;101308.63;;;15.88;62.94
48926;BME280;39838;59.938;30.642;2022-08-21T03:05:29;101305.09;;;15.93;62.97
48926;BME280;39838;59.938;30.642;2022-08-21T03:07:58;101308.50;;;15.98;62.89
48926;BME280;39838;59.938;30.642;2022-08-21T03:10:26;101305.84;;;16.04;62.55
48926;BME280;39838;59.938;30.642;2022-08-21T03:12:53;101306.66;;;16.09;62.62
48926;BME280;39838;59.938;30.642;2022-08-21T03:15:22;101310.13;;;16.13;62.64
48926;BME280;39838;59.938;30.642;2022-08-21T03:17:50;101307.50;;;16.15;62.53
48926;BME280;39838;59.938;30.642;2022-08-21T03:20:21;101297.09;;;16.07;62.57
48926;BME280;39838;59.938;30.642;2022-08-21T03:22:49;101305.63;;;16.24;62.52
48926;BME280;39838;59.938;30.642;2022-08-21T03:25:17;101304.75;;;16.25;62.86
48926;BME280;39838;59.938;30.642;2022-08-21T03:27:44;101304.75;;;16.27;62.66
48926;BME280;39838;59.938;30.642;2022-08-21T03:30:13;101297.75;;;16.24;62.72
48926;BME280;39838;59.938;30.642;2022-08-21T03:32:40;101304.66;;;16.34;62.52
48926;BME280;39838;59.938;30.642;2022-08-21T03:35:08;101308.16;;;16.35;62.56
48926;BME280;39838;59.938;30.642;2022-08-21T03:37:36;101307.25;;;16.36;62.45
48926;BME280;39838;59.938;30.642;2022-08-21T03:40:04;101300.31;;;16.30;62.64
48926;BME280;39838;59.938;30.642;2022-08-21T03:42:32;101306.53;;;16.23;62.69
48926;BME280;39838;59.938;30.642;2022-08-21T03:44:59;101312.72;;;16.16;63.25
48926;BME280;39838;59.938;30.642;2022-08-21T03:47:26;101304.88;;;16.11;63.21
48926;BME280;39838;59.938;30.642;2022-08-21T03:49:53;101313.63;;;16.10;63.39
48926;BME280;39838;59.938;30.642;2022-08-21T03:52:21;101309.25;;;16.14;63.48
48926;BME280;39838;59.938;30.642;2022-08-21T03:54:50;101303.94;;;16.20;63.33
48926;BME280;39838;59.938;30.642;2022-08-21T03:57:17;101311.75;;;16.26;63.52
48926;BME280;39838;59.938;30.642;2022-08-21T03:59:44;101297.72;;;16.29;63.56
48926;BME280;39838;59.938;30.642;2022-08-21T04:02:14;101297.78;;;16.26;63.99
48926;BME280;39838;59.938;30.642;2022-08-21T04:04:43;101296.91;;;16.22;64.09
48926;BME280;39838;59.938;30.642;2022-08-21T04:07:10;101296.03;;;16.23;64.38
48926;BME280;39838;59.938;30.642;2022-08-21T04:09:37;101301.28;;;16.23;64.54
48926;BME280;39838;59.938;30.642;2022-08-21T04:12:06;101299.53;;;16.22;64.85
48926;BME280;39838;59.938;30.642;2022-08-21T04:14:33;101303.06;;;16.21;65.06
48926;BME280;39838;59.938;30.642;2022-08-21T04:17:00;101298.69;;;16.22;65.16
48926;BME280;39838;59.938;30.642;2022-08-21T04:19:27;101308.25;;;16.27;65.38
48926;BME280;39838;59.938;30.642;2022-08-21T04:21:54;101305.50;;;16.36;65.09
48926;BME280;39838;59.938;30.642;2022-08-21T04:24:21;101295.84;;;16.38;65.12
48926;BME280;39838;59.938;30.642;2022-08-21T04:26:48;101307.19;;;16.42;65.18
48926;BME280;39838;59.938;30.642;2022-08-21T04:29:17;101296.72;;;16.41;64.98
48926;BME280;39838;59.938;30.642;2022-08-21T04:31:45;101299.34;;;16.41;64.89
48926;BME280;39838;59.938;30.642;2022-08-21T04:34:12;101307.19;;;16.42;65.17
48926;BME280;39838;59.938;30.642;2022-08-21T04:36:39;101297.59;;;16.41;65.30
48926;BME280;39838;59.938;30.642;2022-08-21T04:39:06;101290.59;;;16.42;65.65
48926;BME280;39838;59.938;30.642;2022-08-21T04:41:33;101304.53;;;16.47;66.00
48926;BME280;39838;59.938;30.642;2022-08-21T04:44:01;101292.22;;;16.53;65.81
48926;BME280;39838;59.938;30.642;2022-08-21T04:46:30;101282.53;;;16.57;66.25
48926;BME280;39838;59.938;30.642;2022-08-21T04:48:57;101291.22;;;16.62;66.34
48926;BME280;39838;59.938;30.642;2022-08-21T04:51:28;101284.25;;;16.58;66.33
48926;BME280;39838;59.938;30.642;2022-08-21T04:53:59;101295.50;;;16.69;66.50
48926;BME280;39838;59.938;30.642;2022-08-21T04:56:30;101293.72;;;16.73;66.31
48926;BME280;39838;59.938;30.642;2022-08-21T04:59:00;101261.59;;;16.54;66.39
48926;BME280;39838;59.938;30.642;2022-08-21T05:01:32;101266.81;;;16.55;66.44
48926;BME280;39838;59.938;30.642;2022-08-21T05:04:02;101291.13;;;16.71;66.48
48926;BME280;39838;59.938;30.642;2022-08-21T05:06:33;101268.44;;;16.67;66.39
48926;BME280;39838;59.938;30.642;2022-08-21T05:09:03;101289.25;;;16.79;66.73
48926;BME280;39838;59.938;30.642;2022-08-21T05:11:31;101292.75;;;16.81;67.21
48926;BME280;39838;59.938;30.642;2022-08-21T05:13:58;101290.84;;;16.94;66.87
48926;BME280;39838;59.938;30.642;2022-08-21T05:16:25;101288.88;;;17.07;66.58
48926;BME280;39838;59.938;30.642;2022-08-21T05:18:54;101294.06;;;17.13;66.59
48926;BME280;39838;59.938;30.642;2022-08-21T05:21:22;101294.91;;;17.15;66.50
48926;BME280;39838;59.938;30.642;2022-08-21T05:23:49;101297.50;;;17.18;66.54
48926;BME280;39838;59.938;30.642;2022-08-21T05:26:16;101295.59;;;17.29;66.31
48926;BME280;39838;59.938;30.642;2022-08-21T05:28:43;101294.56;;;17.38;66.05
48926;BME280;39838;59.938;30.642;2022-08-21T05:31:10;101291.94;;;17.38;66.04
48926;BME280;39838;59.938;30.642;2022-08-21T05:33:37;101293.69;;;17.37;65.83
48926;BME280;39838;59.938;30.642;2022-08-21T05:36:06;101284.16;;;17.32;65.72
48926;BME280;39838;59.938;30.642;2022-08-21T05:38:33;101292.00;;;17.33;65.91
48926;BME280;39838;59.938;30.642;2022-08-21T05:41:00;101291.19;;;17.30;66.11
48926;BME280;39838;59.938;30.642;2022-08-21T05:43:27;101284.25;;;17.26;66.13
48926;BME280;39838;59.938;30.642;2022-08-21T05:45:54;101288.56;;;17.30;66.01
48926;BME280;39838;59.938;30.642;2022-08-21T05:48:23;101259.91;;;17.16;66.17
48926;BME280;39838;59.938;30.642;2022-08-21T05:50:51;101287.53;;;17.40;66.14
48926;BME280;39838;59.938;30.642;2022-08-21T05:53:23;101259.41;;;17.48;65.94
48926;BME280;39838;59.938;30.642;2022-08-21T05:55:51;101284.16;;;17.86;65.41
48926;BME280;39838;59.938;30.642;2022-08-21T05:58:20;101270.69;;;18.04;64.95
48926;BME280;39838;59.938;30.642;2022-08-21T06:00:49;101252.22;;;18.09;64.65
48926;BME280;39838;59.938;30.642;2022-08-21T06:03:19;101268.31;;;18.35;64.12
48926;BME280;39838;59.938;30.642;2022-08-21T06:05:49;101262.78;;;18.49;63.55
48926;BME280;39838;59.938;30.642;2022-08-21T06:08:17;101265.28;;;18.57;63.11
48926;BME280;39838;59.938;30.642;2022-08-21T06:10:47;101265.13;;;18.63;62.84
48926;BME280;39838;59.938;30.642;2022-08-21T06:13:16;101264.16;;;18.68;62.53
48926;BME280;39838;59.938;30.642;2022-08-21T06:15:43;101264.25;;;18.62;62.43
48926;BME280;39838;59.938;30.642;2022-08-21T06:18:11;101266.44;;;18.43;62.90
48926;BME280;39838;59.938;30.642;2022-08-21T06:20:39;101268.19;;;18.43;63.30
48926;BME280;39838;59.938;30.642;2022-08-21T06:23:06;101272.53;;;18.45;63.05
48926;BME280;39838;59.938;30.642;2022-08-21T06:25:33;101271.56;;;18.48;63.26
48926;BME280;39838;59.938;30.642;2022-08-21T06:28:03;101258.41;;;18.49;63.20
48926;BME280;39838;59.938;30.642;2022-08-21T06:30:32;101263.25;;;18.71;62.86
48926;BME280;39838;59.938;30.642;2022-08-21T06:33:00;101256.00;;;18.80;62.43
48926;BME280;39838;59.938;30.642;2022-08-21T06:35:27;101254.06;;;18.90;62.18
48926;BME280;39838;59.938;30.642;2022-08-21T06:37:55;101249.56;;;18.94;61.88
48926;BME280;39838;59.938;30.642;2022-08-21T06:40:22;101250.53;;;18.91;61.79
48926;BME280;39838;59.938;30.642;2022-08-21T06:42:49;101246.97;;;18.92;61.95
48926;BME280;39838;59.938;30.642;2022-08-21T06:45:18;101255.44;;;19.06;61.87
48926;BME280;39838;59.938;30.642;2022-08-21T06:47:45;101250.06;;;19.09;61.35
48926;BME280;39838;59.938;30.642;2022-08-21T06:50:12;101249.94;;;19.16;61.23
48926;BME280;39838;59.938;30.642;2022-08-21T06:52:39;101246.97;;;19.29;60.96
48926;BME280;39838;59.938;30.642;2022-08-21T06:55:08;101249.31;;;19.42;60.44
48926;BME280;39838;59.938;30.642;2022-08-21T06:57:36;101247.50;;;19.44;60.17
48926;BME280;39838;59.938;30.642;2022-08-21T07:00:04;101248.28;;;19.47;60.15
48926;BME280;39838;59.938;30.642;2022-08-21T07:02:33;101242.81;;;19.58;60.08
48926;BME280;39838;59.938;30.642;2022-08-21T07:05:00;101249.72;;;19.62;59.87
48926;BME280;39838;59.938;30.642;2022-08-21T07:07:28;101243.53;;;19.63;59.66
48926;BME280;39838;59.938;30.642;2022-08-21T07:09:55;101231.38;;;19.56;59.72
48926;BME280;39838;59.938;30.642;2022-08-21T07:12:22;101229.56;;;19.59;59.76
48926;BME280;39838;59.938;30.642;2022-08-21T07:14:49;101218.16;;;19.59;59.74
48926;BME280;39838;59.938;30.642;2022-08-21T07:17:16;101228.91;;;19.50;59.66
48926;BME280;39838;59.938;30.642;2022-08-21T07:19:44;101218.84;;;19.31;60.25
48926;BME280;39838;59.938;30.642;2022-08-21T07:22:12;101214.59;;;19.26;60.58
48926;BME280;39838;59.938;30.642;2022-08-21T07:24:41;101217.13;;;19.29;60.99
48926;BME280;39838;59.938;30.642;2022-08-21T07:27:08;101215.91;;;19.42;60.70
48926;BME280;39838;59.938;30.642;2022-08-21T07:29:35;101216.63;;;19.49;60.37
48926;BME280;39838;59.938;30.642;2022-08-21T07:32:03;101210.34;;;19.54;60.38
48926;BME280;39838;59.938;30.642;2022-08-21T07:34:30;101199.69;;;19.60;60.04
48926;BME280;39838;59.938;30.642;2022-08-21T07:36:59;101197.09;;;19.57;59.91
48926;BME280;39838;59.938;30.642;2022-08-21T07:39:26;101195.06;;;19.69;60.06
48926;BME280;39838;59.938;30.642;2022-08-21T07:41:53;101187.56;;;19.86;59.43
48926;BME280;39838;59.938;30.642;2022-08-21T07:44:20;101186.22;;;20.02;59.28
48926;BME280;39838;59.938;30.642;2022-08-21T07:46:47;101184.09;;;20.15;58.87
48926;BME280;39838;59.938;30.642;2022-08-21T07:49:14;101190.44;;;20.39;58.62
48926;BME280;39838;59.938;30.642;2022-08-21T07:51:41;101182.72;;;20.62;58.01
48926;BME280;39838;59.938;30.642;2022-08-21T07:54:10;101185.28;;;20.92;57.30
48926;BME280;39838;59.938;30.642;2022-08-21T07:56:37;101182.47;;;21.24;56.50
48926;BME280;39838;59.938;30.642;2022-08-21T07:59:04;101178.31;;;21.44;55.58
48926;BME280;39838;59.938;30.642;2022-08-21T08:01:31;101179.56;;;21.59;55.46
48926;BME280;39838;59.938;30.642;2022-08-21T08:03:59;101169.34;;;21.74;54.85
48926;BME280;39838;59.938;30.642;2022-08-21T08:06:26;101178.28;;;21.70;54.79
48926;BME280;39838;59.938;30.642;2022-08-21T08:08:53;101170.00;;;21.79;54.81
48926;BME280;39838;59.938;30.642;2022-08-21T08:11:21;101183.81;;;21.88;54.57
48926;BME280;39838;59.938;30.642;2022-08-21T08:13:51;101176.72;;;21.90;54.05
48926;BME280;39838;59.938;30.642;2022-08-21T08:16:19;101174.66;;;21.98;53.88
48926;BME280;39838;59.938;30.642;2022-08-21T08:18:46;101179.34;;;21.90;54.14
48926;BME280;39838;59.938;30.642;2022-08-21T08:21:13;101170.59;;;21.88;53.85
48926;BME280;39838;59.938;30.642;2022-08-21T08:23:40;101175.09;;;21.86;53.75
48926;BME280;39838;59.938;30.642;2022-08-21T08:26:09;101170.19;;;21.75;53.84
48926;BME280;39838;59.938;30.642;2022-08-21T08:28:38;101168.03;;;21.61;53.80
48926;BME280;39838;59.938;30.642;2022-08-21T08:31:05;101166.25;;;21.62;53.96
48926;BME280;39838;59.938;30.642;2022-08-21T08:33:32;101162.47;;;21.69;53.94
48926;BME280;39838;59.938;30.642;2022-08-21T08:35:59;101151.19;;;21.64;53.93
48926;BME280;39838;59.938;30.642;2022-08-21T08:38:26;101148.03;;;21.54;53.94
48926;BME280;39838;59.938;30.642;2022-08-21T08:41:00;101152.75;;;21.44;54.19
48926;BME280;39838;59.938;30.642;2022-08-21T08:43:29;101152.81;;;21.43;54.42
48926;BME280;39838;59.938;30.642;2022-08-21T08:46:02;101151.25;;;21.37;54.45
48926;BME280;39838;59.938;30.642;2022-08-21T08:48:41;101150.47;;;21.34;54.69
48926;BME280;39838;59.938;30.642;2022-08-21T08:51:15;101143.75;;;21.23;54.63
48926;BME280;39838;59.938;30.642;2022-08-21T08:53:48;101147.72;;;21.10;55.00
48926;BME280;39838;59.938;30.642;2022-08-21T08:56:21;101148.53;;;20.86;55.34
48926;BME280;39838;59.938;30.642;2022-08-21T08:58:50;101144.13;;;20.58;56.27
48926;BME280;39838;59.938;30.642;2022-08-21T09:01:20;101153.13;;;20.53;56.82
48926;BME280;39838;59.938;30.642;2022-08-21T09:03:48;101146.75;;;20.58;56.87
48926;BME280;39838;59.938;30.642;2022-08-21T09:06:28;101144.34;;;20.51;57.10
48926;BME280;39838;59.938;30.642;2022-08-21T09:09:08;101147.59;;;20.60;56.89
48926;BME280;39838;59.938;30.642;2022-08-21T09:11:44;101156.38;;;20.61;57.07
48926;BME280;39838;59.938;30.642;2022-08-21T09:14:18;101138.09;;;20.55;57.18
48926;BME280;39838;59.938;30.642;2022-08-21T09:16:56;101098.16;;;20.36;57.40
48926;BME280;39838;59.938;30.642;2022-08-21T09:19:44;101139.50;;;20.66;57.17
48926;BME280;39838;59.938;30.642;2022-08-21T09:22:19;101132.97;;;20.77;56.74
48926;BME280;39838;59.938;30.642;2022-08-21T09:24:55;101137.75;;;20.92;56.57
48926;BME280;39838;59.938;30.642;2022-08-21T09:27:28;101129.94;;;21.15;56.50
48926;BME280;39838;59.938;30.642;2022-08-21T09:29:57;101120.25;;;21.16;56.50
48926;BME280;39838;59.938;30.642;2022-08-21T09:32:28;101110.63;;;21.13;56.25
48926;BME280;39838;59.938;30.642;2022-08-21T09:35:00;101129.31;;;21.34;56.50
48926;BME280;39838;59.938;30.642;2022-08-21T09:37:31;101118.06;;;21.53;55.86
48926;BME280;39838;59.938;30.642;2022-08-21T09:40:01;101119.75;;;21.79;55.54
48926;BME280;39838;59.938;30.642;2022-08-21T09:42:31;101124.03;;;21.84;54.90
48926;BME280;39838;59.938;30.642;2022-08-21T09:45:09;101126.97;;;21.76;54.94
48926;BME280;39838;59.938;30.642;2022-08-21T09:47:38;101117.94;;;21.82;54.82
48926;BME280;39838;59.938;30.642;2022-08-21T09:50:11;101118.63;;;21.87;55.10
48926;BME280;39838;59.938;30.642;2022-08-21T09:52:44;101109.53;;;21.94;55.12
48926;BME280;39838;59.938;30.642;2022-08-21T09:55:16;101110.97;;;21.79;55.00
48926;BME280;39838;59.938;30.642;2022-08-21T09:57:59;101112.97;;;21.72;55.41
48926;BME280;39838;59.938;30.642;2022-08-21T10:00:29;101108.25;;;21.80;55.26
48926;BME280;39838;59.938;30.642;2022-08-21T10:03:11;101109.13;;;21.81;54.84
48926;BME280;39838;59.938;30.642;2022-08-21T10:05:39;101106.66;;;22.00;54.84
48926;BME280;39838;59.938;30.642;2022-08-21T10:08:16;101100.00;;;22.13;54.92
48926;BME280;39838;59.938;30.642;2022-08-21T10:10:44;101093.00;;;22.12;54.48
48926;BME280;39838;59.938;30.642;2022-08-21T10:13:13;101094.97;;;22.05;54.44
48926;BME280;39838;59.938;30.642;2022-08-21T10:15:50;101096.78;;;22.05;55.15
48926;BME280;39838;59.938;30.642;2022-08-21T10:18:26;101098.84;;;22.20;54.81
48926;BME280;39838;59.938;30.642;2022-08-21T10:21:00;101095.31;;;22.43;54.23
48926;BME280;39838;59.938;30.642;2022-08-21T10:23:38;101093.38;;;22.69;53.75
48926;BME280;39838;59.938;30.642;2022-08-21T10:26:15;101070.84;;;22.80;53.55
48926;BME280;39838;59.938;30.642;2022-08-21T10:28:51;101097.53;;;23.18;53.02
48926;BME280;39838;59.938;30.642;2022-08-21T10:31:32;101102.44;;;23.48;52.39
48926;BME280;39838;59.938;30.642;2022-08-21T10:34:19;101086.31;;;23.73;51.67
48926;BME280;39838;59.938;30.642;2022-08-21T10:37:00;101099.31;;;23.79;51.92
48926;BME280;39838;59.938;30.642;2022-08-21T10:39:31;101097.16;;;23.87;51.30
48926;BME280;39838;59.938;30.642;2022-08-21T10:42:20;101088.69;;;23.97;51.07
48926;BME280;39838;59.938;30.642;2022-08-21T10:44:59;101089.13;;;24.07;51.20
48926;BME280;39838;59.938;30.642;2022-08-21T10:47:33;101076.88;;;23.86;51.23
48926;BME280;39838;59.938;30.642;2022-08-21T10:50:09;101092.56;;;24.09;51.23
48926;BME280;39838;59.938;30.642;2022-08-21T10:52:59;101092.16;;;24.37;50.79
48926;BME280;39838;59.938;30.642;2022-08-21T10:55:32;101084.75;;;24.44;50.81
48926;BME280;39838;59.938;30.642;2022-08-21T10:58:04;101083.31;;;24.56;50.62
48926;BME280;39838;59.938;30.642;2022-08-21T11:00:38;101080.03;;;24.68;50.00
48926;BME280;39838;59.938;30.642;2022-08-21T11:03:09;101077.56;;;24.82;49.94
48926;BME280;39838;59.938;30.642;2022-08-21T11:05:42;101058.53;;;24.72;49.98
48926;BME280;39838;59.938;30.642;2022-08-21T11:08:12;101079.50;;;24.78;49.49
48926;BME280;39838;59.938;30.642;2022-08-21T11:10:45;101055.84;;;24.74;49.31
48926;BME280;39838;59.938;30.642;2022-08-21T11:13:21;101073.88;;;24.85;49.67
48926;BME280;39838;59.938;30.642;2022-08-21T11:15:55;101078.41;;;24.83;49.65
48926;BME280;39838;59.938;30.642;2022-08-21T11:18:27;101078.88;;;24.73;50.01
48926;BME280;39838;59.938;30.642;2022-08-21T11:21:04;101044.69;;;24.48;49.74
48926;BME280;39838;59.938;30.642;2022-08-21T11:23:39;101056.00;;;24.35;50.03
48926;BME280;39838;59.938;30.642;2022-08-21T11:26:11;101068.09;;;24.03;50.38
48926;BME280;39838;59.938;30.642;2022-08-21T11:28:46;101060.38;;;23.79;50.40
48926;BME280;39838;59.938;30.642;2022-08-21T11:31:25;101050.31;;;23.67;51.04
48926;BME280;39838;59.938;30.642;2022-08-21T11:34:08;101063.13;;;23.37;50.93
48926;BME280;39838;59.938;30.642;2022-08-21T11:36:46;101070.97;;;23.20;51.68
48926;BME280;39838;59.938;30.642;2022-08-21T11:39:23;101071.16;;;23.15;51.96
48926;BME280;39838;59.938;30.642;2022-08-21T11:41:56;101055.66;;;23.06;52.03
48926;BME280;39838;59.938;30.642;2022-08-21T11:44:37;101037.78;;;22.91;52.25
48926;BME280;39838;59.938;30.642;2022-08-21T11:47:13;101062.22;;;22.97;52.73
48926;BME280;39838;59.938;30.642;2022-08-21T11:50:06;101058.84;;;22.94;53.05
48926;BME280;39838;59.938;30.642;2022-08-21T11:52:43;101058.31;;;23.06;53.78
48926;BME280;39838;59.938;30.642;2022-08-21T11:55:16;101060.28;;;23.21;52.95
48926;BME280;39838;59.938;30.642;2022-08-21T11:57:51;101039.69;;;23.28;52.90
48926;BME280;39838;59.938;30.642;2022-08-21T12:00:24;101045.72;;;23.31;52.74
48926;BME280;39838;59.938;30.642;2022-08-21T12:02:55;101064.78;;;23.39;52.52
48926;BME280;39838;59.938;30.642;2022-08-21T12:05:28;101039.00;;;23.43;52.19
48926;BME280;39838;59.938;30.642;2022-08-21T12:08:05;101057.53;;;23.43;52.37
48926;BME280;39838;59.938;30.642;2022-08-21T12:10:35;101064.59;;;23.44;52.44
48926;BME280;39838;59.938;30.642;2022-08-21T12:13:07;101064.38;;;23.49;52.43
48926;BME280;39838;59.938;30.642;2022-08-21T12:15:35;101063.25;;;23.54;52.24
48926;BME280;39838;59.938;30.642;2022-08-21T12:18:04;101060.50;;;23.56;52.09
48926;BME280;39838;59.938;30.642;2022-08-21T12:20:42;101045.81;;;23.49;52.14
48926;BME280;39838;59.938;30.642;2022-08-21T12:23:24;101056.81;;;23.60;52.29
48926;BME280;39838;59.938;30.642;2022-08-21T12:26:02;101046.38;;;23.76;51.89
48926;BME280;39838;59.938;30.642;2022-08-21T12:28:31;101059.00;;;23.89;52.08
48926;BME280;39838;59.938;30.642;2022-08-21T12:30:58;101053.91;;;24.22;52.19
48926;BME280;39838;59.938;30.642;2022-08-21T12:33:30;101052.06;;;24.61;51.75
48926;BME280;39838;59.938;30.642;2022-08-21T12:36:04;101049.50;;;25.28;51.69
48926;BME280;39838;59.938;30.642;2022-08-21T12:38:44;101056.53;;;26.11;49.60
48926;BME280;39838;59.938;30.642;2022-08-21T12:41:18;101059.56;;;26.83;47.98
48926;BME280;39838;59.938;30.642;2022-08-21T12:43:48;101033.59;;;27.16;46.43
48926;BME280;39838;59.938;30.642;2022-08-21T12:46:20;101042.06;;;27.66;46.02
48926;BME280;39838;59.938;30.642;2022-08-21T12:48:52;101055.28;;;28.10;45.11
48926;BME280;39838;59.938;30.642;2022-08-21T12:51:24;101054.22;;;28.54;44.01
48926;BME280;39838;59.938;30.642;2022-08-21T12:53:55;101040.50;;;28.73;43.55